Time;durP1;ratioP1;P1;durP2;ratioP2;P2;SDS_P1;SDS_P2;PMS_P1;PMS_P2;Temp;Humidity;BMP_temperature;BMP_pressure;BME280_temperature;BME280_humidity;BME280_pressure;Samples;Min_cycle;Max_cycle;Signal;HPM_P1;HPM_P2
2021/12/17 00:05:09;;;;;;;15.73;3.25;;;17.40;37.10;;;;;;5109939;28;20090;-64
2021/12/17 00:07:37;;;;;;;17.58;3.45;;;17.30;37.10;;;;;;5092760;28;20075;-62
2021/12/17 00:10:17;;;;;;;11.20;3.92;;;17.20;37.20;;;;;;5089911;28;20093;-62
2021/12/17 00:12:45;;;;;;;8.00;2.50;;;17.00;37.20;;;;;;5090184;28;20100;-65
2021/12/17 00:15:15;;;;;;;9.52;4.07;;;17.00;37.60;;;;;;5089643;28;20481;-65
2021/12/17 00:17:51;;;;;;;7.38;3.38;;;16.80;38.00;;;;;;5090413;28;20084;-63
2021/12/17 00:48:35;;;;;;;17.70;6.05;;;15.80;41.40;;;;;;5048110;28;20694;-64
2021/12/17 00:53:56;;;;;;;28.90;8.25;;;15.60;41.60;;;;;;5083011;28;20084;-64
2021/12/17 00:56:22;;;;;;;19.33;8.63;;;15.50;41.90;;;;;;5101857;28;20076;-65
2021/12/17 00:58:49;;;;;;;24.17;10.13;;;15.50;42.20;;;;;;5089338;28;20120;-64
2021/12/17 01:01:15;;;;;;;;;;;15.40;42.50;;;;;;5089919;28;20501;-64
2021/12/17 01:03:42;;;;;;;26.73;9.75;;;15.40;42.90;;;;;;5090542;28;19963;-65
2021/12/17 01:06:09;;;;;;;21.90;9.93;;;15.30;43.10;;;;;;5090328;28;20164;-64
2021/12/17 01:08:36;;;;;;;19.92;9.82;;;15.20;43.50;;;;;;5089484;28;20081;-62
2021/12/17 01:11:03;;;;;;;27.70;10.35;;;15.20;43.80;;;;;;5090449;28;20118;-62
2021/12/17 01:13:30;;;;;;;25.98;10.65;;;15.10;44.20;;;;;;5090328;28;20159;-66
2021/12/17 01:15:57;;;;;;;32.67;12.20;;;15.00;44.60;;;;;;5089485;28;20527;-64
2021/12/17 01:18:35;;;;;;;30.13;12.73;;;15.00;45.20;;;;;;5088907;28;20096;-67
2021/12/17 01:42:54;;;;;;;41.78;16.80;;;14.30;47.70;;;;;;5090393;28;20095;-65
2021/12/17 01:45:26;;;;;;;;;;;14.30;47.50;;;;;;5089460;28;20068;-62
2021/12/17 01:47:52;;;;;;;55.03;17.45;;;14.20;47.10;;;;;;5091025;28;20026;-67
2021/12/17 01:56:01;;;;;;;67.07;16.10;;;14.10;47.80;;;;;;5089182;28;20162;-64
2021/12/17 02:01:13;;;;;;;50.85;14.93;;;14.00;48.10;;;;;;5089541;28;20075;-62
2021/12/17 02:03:40;;;;;;;52.50;15.38;;;14.00;48.80;;;;;;5088977;28;20168;-65
2021/12/17 02:06:06;;;;;;;53.00;14.88;;;14.00;49.30;;;;;;5088908;28;20122;-64
2021/12/17 02:08:34;;;;;;;55.53;15.82;;;14.00;48.80;;;;;;5089995;28;20531;-64
2021/12/17 02:30:22;;;;;;;53.45;12.23;;;13.60;50.70;;;;;;5087410;28;20087;-65
2021/12/17 02:32:49;;;;;;;59.55;13.23;;;13.50;50.70;;;;;;5088877;28;20084;-65
2021/12/17 02:37:45;;;;;;;44.85;11.18;;;13.50;51.10;;;;;;5087597;28;20323;-65
2021/12/17 02:45:33;;;;;;;39.22;10.63;;;13.30;52.20;;;;;;5086910;28;20118;-66
2021/12/17 02:48:14;;;;;;;41.83;11.50;;;13.20;53.10;;;;;;5071557;28;20092;-66
2021/12/17 02:50:44;;;;;;;38.15;10.70;;;13.10;52.80;;;;;;5069758;28;20462;-65
2021/12/17 02:53:11;;;;;;;46.05;11.20;;;13.10;52.90;;;;;;5086159;28;20151;-65
2021/12/17 02:55:44;;;;;;;48.60;10.40;;;13.10;52.90;;;;;;5087650;28;20108;-64
2021/12/17 02:58:11;;;;;;;54.75;11.00;;;13.10;52.80;;;;;;5095504;28;20107;-64
2021/12/17 03:00:39;;;;;;;46.38;11.18;;;13.00;53.10;;;;;;5089280;28;20077;-66
2021/12/17 03:03:08;;;;;;;46.90;10.43;;;13.00;53.60;;;;;;5087467;28;20552;-65
2021/12/17 03:05:38;;;;;;;53.88;11.10;;;13.00;53.40;;;;;;5088322;28;20138;-65
2021/12/17 03:08:12;;;;;;;31.60;9.80;;;12.90;54.10;;;;;;5086250;28;20105;-64
2021/12/17 03:10:39;;;;;;;30.58;8.93;;;12.90;53.60;;;;;;5070903;28;20145;-63
2021/12/17 03:13:06;;;;;;;48.53;10.00;;;12.80;53.40;;;;;;5070332;28;20475;-64
2021/12/17 03:26:06;;;;;;;32.33;8.40;;;12.70;54.00;;;;;;5087447;28;20246;-62
2021/12/17 03:28:33;;;;;;;28.35;9.80;;;12.70;54.10;;;;;;5087660;28;20264;-66
2021/12/17 03:31:02;;;;;;;36.42;10.75;;;12.60;54.20;;;;;;5086614;28;20069;-64
2021/12/17 03:33:29;;;;;;;22.08;9.63;;;12.70;54.10;;;;;;5087043;28;20079;-64
2021/12/17 03:35:57;;;;;;;32.30;9.77;;;12.70;54.50;;;;;;5086675;28;20091;-64
2021/12/17 03:38:24;;;;;;;27.58;10.32;;;12.60;54.20;;;;;;5086799;28;20146;-64
2021/12/17 03:41:05;;;;;;;39.17;11.88;;;12.60;54.30;;;;;;5069495;28;20084;-64
2021/12/17 03:43:33;;;;;;;39.38;11.73;;;12.60;55.30;;;;;;5085746;28;20205;-65
2021/12/17 03:45:59;;;;;;;31.27;12.00;;;12.50;54.90;;;;;;5091223;28;20099;-65
2021/12/17 03:48:29;;;;;;;42.15;13.20;;;12.40;55.20;;;;;;5089118;28;20076;-64
2021/12/17 03:50:56;;;;;;;42.70;13.02;;;12.50;55.30;;;;;;5085455;28;20088;-64
2021/12/17 03:53:22;;;;;;;47.33;15.88;;;12.40;55.40;;;;;;5088237;28;20571;-64
2021/12/17 03:55:49;;;;;;;66.18;17.48;;;12.30;55.60;;;;;;5084896;28;20171;-64
2021/12/17 03:58:17;;;;;;;55.33;17.02;;;12.30;55.70;;;;;;5086736;28;20128;-67
2021/12/17 04:00:44;;;;;;;46.75;17.17;;;12.30;56.60;;;;;;5068677;28;20534;-67
2021/12/17 04:03:10;;;;;;;;;;;12.20;56.20;;;;;;5071874;28;20073;-65
2021/12/17 04:05:36;;;;;;;59.80;16.38;;;12.20;56.70;;;;;;5090680;28;19979;-66
2021/12/17 04:08:03;;;;;;;71.68;17.25;;;12.20;56.30;;;;;;5072929;28;20069;-68
2021/12/17 04:10:39;;;;;;;47.40;16.20;;;12.10;56.90;;;;;;5072451;28;20081;-67
2021/12/17 04:13:24;;;;;;;65.95;16.92;;;12.10;57.40;;;;;;5089404;28;20096;-67
2021/12/17 04:15:56;;;;;;;48.50;15.68;;;12.10;58.10;;;;;;5089157;28;20538;-66
2021/12/17 04:18:23;;;;;;;54.95;14.00;;;12.00;57.30;;;;;;5074284;28;20183;-70
2021/12/17 04:20:50;;;;;;;57.00;14.95;;;12.00;58.00;;;;;;5089101;28;20103;-69
2021/12/17 04:23:16;;;;;;;;;;;12.00;57.90;;;;;;5090579;28;20121;-68
2021/12/17 04:25:43;;;;;;;47.42;14.13;;;12.00;57.80;;;;;;5089131;28;19989;-68
2021/12/17 04:28:09;;;;;;;;;;;12.00;57.10;;;;;;5092466;28;20069;-67
2021/12/17 04:30:37;;;;;;;43.97;13.18;;;12.00;58.10;;;;;;5073712;28;20043;-70
2021/12/17 04:33:04;;;;;;;64.93;14.48;;;11.90;57.40;;;;;;5089520;28;20069;-68
2021/12/17 04:35:30;;;;;;;75.55;14.27;;;11.90;57.90;;;;;;5089072;28;20081;-66
2021/12/17 04:37:57;;;;;;;;;;;12.00;57.50;;;;;;5091600;28;20166;-68
2021/12/17 04:40:24;;;;;;;43.60;13.80;;;11.90;57.40;;;;;;5073114;28;19956;-65
2021/12/17 04:45:24;;;;;;;53.75;14.88;;;12.00;58.20;;;;;;5090094;28;20069;-68
2021/12/17 04:58:49;;;;;;;49.67;16.30;;;11.70;59.20;;;;;;5100800;28;20087;-72
2021/12/17 05:01:16;;;;;;;59.97;16.75;;;11.70;59.40;;;;;;5089782;28;20455;-68
2021/12/17 05:03:43;;;;;;;66.57;20.10;;;11.60;59.20;;;;;;5070967;28;20065;-69
2021/12/17 05:06:09;;;;;;;62.50;20.15;;;11.60;59.00;;;;;;5088552;28;20164;-68
2021/12/17 05:08:36;;;;;;;53.63;18.00;;;11.50;59.30;;;;;;5072746;28;20458;-70
2021/12/17 05:19:27;;;;;;;66.35;17.35;;;11.50;60.10;;;;;;5089823;28;20177;-69
2021/12/17 05:21:54;;;;;;;81.05;18.73;;;11.60;60.30;;;;;;5088239;28;20086;-68
2021/12/17 05:24:20;;;;;;;;;;;11.50;59.90;;;;;;5073633;28;20075;-68
2021/12/17 05:26:46;;;;;;;76.00;19.30;;;11.50;60.60;;;;;;5109007;28;19980;-69
2021/12/17 05:29:13;;;;;;;78.57;18.27;;;11.50;60.40;;;;;;5091150;28;20069;-69
2021/12/17 05:31:39;;;;;;;67.28;18.40;;;11.50;60.60;;;;;;5088061;28;20077;-68
2021/12/17 05:34:05;;;;;;;;;;;11.50;60.60;;;;;;5089227;28;20084;-68
2021/12/17 05:36:31;;;;;;;62.45;17.75;;;11.50;60.80;;;;;;5072102;28;19967;-69
2021/12/17 05:38:57;;;;;;;;;;;11.50;61.00;;;;;;5090031;28;20187;-66
2021/12/17 05:41:24;;;;;;;78.25;20.42;;;11.40;60.40;;;;;;5088137;28;19996;-67
2021/12/17 05:43:56;;;;;;;73.72;20.55;;;11.40;60.00;;;;;;5088533;28;20072;-68
2021/12/17 05:46:49;;;;;;;74.43;20.58;;;11.40;60.90;;;;;;5094890;28;20068;-67
2021/12/17 05:49:24;;;;;;;73.70;20.48;;;11.40;60.10;;;;;;5089541;28;20100;-68
2021/12/17 05:51:52;;;;;;;79.32;22.17;;;11.40;60.20;;;;;;5087505;28;20080;-68
2021/12/17 05:54:20;;;;;;;85.10;20.98;;;11.40;60.80;;;;;;5087446;28;20562;-66
2021/12/17 05:56:47;;;;;;;101.07;24.13;;;11.30;61.40;;;;;;5088436;28;20565;-66
2021/12/17 05:59:14;;;;;;;79.50;21.75;;;11.30;62.00;;;;;;5087031;28;20574;-67
2021/12/17 06:01:40;;;;;;;87.05;22.27;;;11.40;61.10;;;;;;5087140;28;20072;-67
2021/12/17 06:04:07;;;;;;;85.10;23.98;;;11.30;61.00;;;;;;5088334;28;20091;-65
2021/12/17 06:06:37;;;;;;;;;;;11.30;60.80;;;;;;5071137;28;20097;-66
2021/12/17 06:09:07;;;;;;;97.50;24.45;;;11.30;60.80;;;;;;5089013;28;19963;-65
2021/12/17 06:11:35;;;;;;;96.13;24.00;;;11.30;61.00;;;;;;5088040;28;20138;-67
2021/12/17 06:14:01;;;;;;;87.80;24.85;;;11.30;61.20;;;;;;5087500;28;20069;-67
2021/12/17 06:16:28;;;;;;;112.85;26.02;;;11.30;61.00;;;;;;5088128;28;20080;-67
2021/12/17 06:18:55;;;;;;;120.22;27.55;;;11.30;60.80;;;;;;5087435;28;20089;-66
2021/12/17 06:21:21;;;;;;;97.20;27.75;;;11.30;60.80;;;;;;5087755;28;20169;-66
2021/12/17 06:23:47;;;;;;;;;;;11.40;61.80;;;;;;5089395;28;20083;-66
2021/12/17 06:26:14;;;;;;;98.13;27.73;;;11.40;62.30;;;;;;5070113;28;19980;-66
2021/12/17 06:28:40;;;;;;;;;;;11.40;63.10;;;;;;5089170;28;20740;-66
2021/12/17 06:31:06;;;;;;;118.63;32.88;;;11.30;62.30;;;;;;5088344;28;19960;-65
2021/12/17 06:33:32;;;;;;;;;;;11.20;62.70;;;;;;5087203;28;20087;-67
2021/12/17 06:35:59;;;;;;;118.13;33.20;;;11.20;62.90;;;;;;5087795;28;20043;-65
2021/12/17 06:38:25;;;;;;;114.90;31.65;;;11.20;62.60;;;;;;5086566;28;20488;-65
2021/12/17 06:40:53;;;;;;;;;;;11.20;63.80;;;;;;5088029;28;20170;-66
2021/12/17 06:43:27;;;;;;;124.57;31.50;;;11.20;62.80;;;;;;5086677;28;20398;-65
2021/12/17 06:46:00;;;;;;;108.60;32.60;;;11.30;62.40;;;;;;5089800;28;20159;-66
2021/12/17 06:48:29;;;;;;;118.30;31.67;;;11.30;62.60;;;;;;5105540;28;20137;-66
2021/12/17 06:59:22;;;;;;;116.53;32.58;;;11.30;62.50;;;;;;5089337;28;20085;-65
2021/12/17 07:07:59;;;;;;;121.28;33.05;;;11.10;63.20;;;;;;5089033;28;20009;-65
2021/12/17 07:18:00;;;;;;;111.88;33.67;;;11.10;64.20;;;;;;5088634;28;20569;-65
2021/12/17 07:21:16;;;;;;;109.25;34.83;;;11.10;63.70;;;;;;5085981;28;20168;-64
2021/12/17 07:23:50;;;;;;;104.75;35.67;;;11.20;63.50;;;;;;5084737;28;20076;-65
2021/12/17 07:34:06;;;;;;;93.93;36.35;;;11.20;62.30;;;;;;5087754;28;20072;-67
2021/12/17 07:38:35;;;;;;;115.13;37.45;;;11.20;61.80;;;;;;5087429;28;20073;-64
2021/12/17 07:39:30;;;;;;;;;;;11.20;62.60;;;;;;5091337;28;20108;-66
2021/12/17 07:41:56;;;;;;;123.57;36.53;;;11.20;63.60;;;;;;5089437;28;19963;-65
2021/12/17 07:44:22;;;;;;;;;;;11.20;63.20;;;;;;5091342;28;20247;-65
2021/12/17 07:46:49;;;;;;;104.50;37.97;;;11.20;62.90;;;;;;5092033;28;20008;-64
2021/12/17 07:49:15;;;;;;;116.63;39.63;;;11.10;62.70;;;;;;5073360;28;20110;-65
2021/12/17 07:51:41;;;;;;;;;;;11.10;62.50;;;;;;5089658;28;20081;-66
2021/12/17 07:54:07;;;;;;;121.20;40.47;;;11.00;61.80;;;;;;5090491;28;19979;-65
2021/12/17 07:56:43;;;;;;;108.72;39.03;;;11.00;62.10;;;;;;5074099;28;20080;-66
2021/12/17 07:59:11;;;;;;;126.45;42.85;;;10.90;62.20;;;;;;5074997;28;20096;-66
2021/12/17 08:01:39;;;;;;;129.27;41.35;;;10.90;62.10;;;;;;5090791;28;20765;-61
2021/12/17 08:04:07;;;;;;;100.80;38.03;;;10.90;61.80;;;;;;5058886;28;20098;-64
2021/12/17 08:06:35;;;;;;;103.20;35.83;;;10.90;61.60;;;;;;5090885;28;20573;-64
2021/12/17 08:09:02;;;;;;;98.53;35.05;;;10.90;61.80;;;;;;5093001;28;20124;-67
2021/12/17 08:11:31;;;;;;;84.82;32.58;;;10.90;62.10;;;;;;5090023;28;20088;-66
2021/12/17 08:13:58;;;;;;;85.35;29.00;;;10.90;62.10;;;;;;5089683;28;20069;-64
2021/12/17 08:24:45;;;;;;;80.05;27.50;;;10.80;62.80;;;;;;5092849;28;20099;-67
2021/12/17 08:32:07;;;;;;;79.03;25.73;;;10.60;63.60;;;;;;5089689;28;20130;-66
2021/12/17 08:34:34;;;;;;;70.57;25.27;;;10.70;64.10;;;;;;5089906;28;20408;-67
2021/12/17 08:37:01;;;;;;;68.88;23.55;;;10.60;64.70;;;;;;5089140;28;20069;-66
2021/12/17 08:39:31;;;;;;;61.60;23.20;;;10.60;63.60;;;;;;5089611;28;20538;-65
2021/12/17 08:41:59;;;;;;;74.07;22.65;;;10.50;63.70;;;;;;5086799;28;20091;-69
2021/12/17 08:44:27;;;;;;;63.80;21.27;;;10.50;63.70;;;;;;5089539;28;20072;-64
2021/12/17 08:46:53;;;;;;;77.63;21.98;;;10.60;63.00;;;;;;5088704;28;20458;-66
2021/12/17 08:49:19;;;;;;;49.83;21.27;;;10.60;63.30;;;;;;5088667;28;20126;-66
2021/12/17 08:51:46;;;;;;;;;;;10.60;63.40;;;;;;5090607;28;20080;-64
2021/12/17 08:54:12;;;;;;;59.88;21.75;;;10.60;63.10;;;;;;5091088;28;19972;-65
2021/12/17 08:56:47;;;;;;;50.97;20.80;;;10.60;63.30;;;;;;5089631;28;20176;-66
2021/12/17 08:59:16;;;;;;;49.92;18.65;;;10.60;63.30;;;;;;5089393;28;20544;-67
2021/12/17 09:01:44;;;;;;;54.17;19.42;;;10.70;63.40;;;;;;5088028;28;20118;-65
2021/12/17 09:04:11;;;;;;;50.67;17.88;;;10.70;63.80;;;;;;5088857;28;20077;-66
2021/12/17 09:06:38;;;;;;;50.70;18.42;;;10.70;63.10;;;;;;5072261;28;20089;-66
2021/12/17 09:09:05;;;;;;;47.80;18.67;;;10.70;62.80;;;;;;5089932;28;20072;-65
2021/12/17 09:11:32;;;;;;;50.08;18.63;;;10.70;63.40;;;;;;5088714;28;20534;-67
2021/12/17 09:14:00;;;;;;;42.88;17.83;;;10.70;64.10;;;;;;5090300;28;20080;-65
2021/12/17 09:16:27;;;;;;;39.58;16.45;;;10.70;64.70;;;;;;5090658;28;20072;-66
2021/12/17 09:18:55;;;;;;;48.53;17.30;;;10.80;65.00;;;;;;5090040;28;20138;-66
2021/12/17 09:21:22;;;;;;;40.67;16.35;;;10.80;64.50;;;;;;5087898;28;20418;-65
2021/12/17 09:23:48;;;;;;;49.53;16.30;;;10.80;63.80;;;;;;5088498;28;20075;-68
2021/12/17 09:26:16;;;;;;;45.13;16.67;;;10.80;63.10;;;;;;5088912;28;20104;-67
2021/12/17 09:28:43;;;;;;;46.55;16.17;;;10.80;63.70;;;;;;5088535;28;20732;-67
2021/12/17 09:31:12;;;;;;;43.58;16.65;;;10.90;62.90;;;;;;5088449;28;20122;-67
2021/12/17 09:33:45;;;;;;;48.97;16.13;;;10.90;63.00;;;;;;5087834;28;20076;-66
2021/12/17 09:36:12;;;;;;;47.63;16.70;;;10.90;62.60;;;;;;5088711;28;20183;-66
2021/12/17 09:38:39;;;;;;;46.17;16.60;;;10.90;62.10;;;;;;5088898;28;20174;-66
2021/12/17 09:41:05;;;;;;;;;;;10.90;62.00;;;;;;5071350;28;20468;-67
2021/12/17 09:43:35;;;;;;;45.15;17.08;;;10.90;61.90;;;;;;5088709;28;20654;-65
2021/12/17 09:46:06;;;;;;;42.15;16.40;;;10.90;62.90;;;;;;5086391;28;20522;-66
2021/12/17 09:48:34;;;;;;;35.80;14.65;;;10.90;62.00;;;;;;5091130;28;20092;-66
2021/12/17 09:51:03;;;;;;;39.45;14.60;;;10.80;61.20;;;;;;5086865;28;20118;-65
2021/12/17 09:53:29;;;;;;;30.67;14.25;;;10.80;61.60;;;;;;5089570;28;20077;-67
2021/12/17 09:55:56;;;;;;;40.58;15.07;;;10.80;61.80;;;;;;5088207;28;20073;-64
2021/12/17 09:58:23;;;;;;;37.53;14.15;;;10.80;62.00;;;;;;5089016;28;20116;-65
2021/12/17 10:00:49;;;;;;;34.60;13.30;;;10.80;61.80;;;;;;5088158;28;20117;-65
2021/12/17 10:03:16;;;;;;;;;;;10.80;61.70;;;;;;5088177;28;20072;-64
2021/12/17 10:05:44;;;;;;;38.17;13.52;;;10.80;61.80;;;;;;5088990;28;19988;-64
2021/12/17 10:08:17;;;;;;;32.67;13.68;;;10.70;61.60;;;;;;5087448;28;20194;-65
2021/12/17 10:10:44;;;;;;;28.45;11.77;;;10.70;61.50;;;;;;5087223;28;20084;-65
2021/12/17 10:13:15;;;;;;;31.73;12.30;;;10.70;61.60;;;;;;5089744;28;20068;-65
2021/12/17 10:15:44;;;;;;;23.95;11.73;;;10.70;61.20;;;;;;5088174;28;20107;-66
2021/12/17 10:18:11;;;;;;;25.15;10.70;;;10.60;60.80;;;;;;5088368;28;20092;-64
2021/12/17 10:20:53;;;;;;;32.35;10.68;;;10.60;60.60;;;;;;5087220;28;20073;-67
2021/12/17 10:23:21;;;;;;;27.23;11.32;;;10.60;60.60;;;;;;5088605;28;20063;-66
2021/12/17 10:25:48;;;;;;;25.40;10.68;;;10.60;60.20;;;;;;5088971;28;20108;-66
2021/12/17 10:28:17;;;;;;;27.33;10.80;;;10.60;60.40;;;;;;5087007;28;20508;-67
2021/12/17 10:30:46;;;;;;;32.53;10.43;;;10.60;60.00;;;;;;5089461;28;20118;-66
2021/12/17 10:33:19;;;;;;;25.00;10.38;;;10.50;59.60;;;;;;5087949;28;20450;-64
2021/12/17 10:35:51;;;;;;;26.33;9.93;;;10.50;59.90;;;;;;5088032;28;20546;-67
2021/12/17 10:38:22;;;;;;;27.88;11.15;;;10.50;59.60;;;;;;5086238;28;20611;-64
2021/12/17 10:41:02;;;;;;;24.98;10.55;;;10.50;59.70;;;;;;5070924;28;20091;-67
2021/12/17 10:43:37;;;;;;;22.80;9.77;;;10.50;60.30;;;;;;5087810;28;20075;-65
2021/12/17 10:46:27;;;;;;;23.00;10.48;;;10.50;60.20;;;;;;5086982;28;20076;-68
2021/12/17 10:49:01;;;;;;;25.80;10.40;;;10.40;60.70;;;;;;5088751;28;20064;-65
2021/12/17 10:54:02;;;;;;;25.10;12.02;;;10.30;61.90;;;;;;5087491;28;20210;-64
2021/12/17 10:56:41;;;;;;;33.28;14.13;;;10.30;61.60;;;;;;5087083;28;20072;-66
2021/12/17 10:59:16;;;;;;;35.47;15.57;;;10.10;61.60;;;;;;5087070;28;20084;-66
2021/12/17 11:01:49;;;;;;;39.92;17.80;;;10.20;62.80;;;;;;5087334;28;20095;-64
2021/12/17 11:04:23;;;;;;;37.08;17.60;;;10.10;63.30;;;;;;5086031;28;20069;-65
2021/12/17 11:07:03;;;;;;;38.33;16.88;;;10.10;63.00;;;;;;5088437;28;20434;-65
2021/12/17 11:09:57;;;;;;;37.70;18.50;;;10.00;63.50;;;;;;5088198;28;20446;-65
2021/12/17 11:12:29;;;;;;;32.15;17.13;;;10.00;62.90;;;;;;5088122;28;20072;-67
2021/12/17 11:15:18;;;;;;;39.67;18.52;;;9.90;63.20;;;;;;5092809;28;20179;-66
2021/12/17 11:18:05;;;;;;;42.50;17.42;;;9.80;63.30;;;;;;5092305;28;20084;-67
2021/12/17 11:20:39;;;;;;;43.22;17.85;;;9.80;63.90;;;;;;5090009;28;20084;-67
2021/12/17 11:23:13;;;;;;;39.15;17.20;;;9.80;64.10;;;;;;5089924;28;20093;-67
2021/12/17 11:25:42;;;;;;;49.60;17.77;;;9.80;63.90;;;;;;5090356;28;20453;-67
2021/12/17 11:28:10;;;;;;;41.03;17.05;;;9.80;63.70;;;;;;5092079;28;20207;-67
2021/12/17 11:30:40;;;;;;;50.05;16.67;;;9.80;63.50;;;;;;5092480;28;20111;-65
2021/12/17 11:33:07;;;;;;;45.83;16.85;;;9.80;63.70;;;;;;5089774;28;20104;-67
2021/12/17 11:35:37;;;;;;;40.90;16.42;;;9.80;63.30;;;;;;5091421;28;20145;-65
2021/12/17 11:38:10;;;;;;;40.75;16.13;;;9.80;63.30;;;;;;5090029;28;20088;-68
2021/12/17 11:40:45;;;;;;;35.50;15.10;;;9.80;62.90;;;;;;5091162;28;20130;-65
2021/12/17 11:43:51;;;;;;;43.92;16.30;;;9.70;62.60;;;;;;5089794;28;20155;-65
2021/12/17 11:46:23;;;;;;;36.40;15.60;;;9.70;62.90;;;;;;5090438;28;20111;-67
2021/12/17 11:48:57;;;;;;;52.63;17.67;;;9.70;62.80;;;;;;5089915;28;20076;-67
2021/12/17 11:51:32;;;;;;;42.05;18.67;;;9.70;62.80;;;;;;5090489;28;20557;-66
2021/12/17 11:54:25;;;;;;;53.30;18.92;;;9.70;62.90;;;;;;5088147;28;20611;-65
2021/12/17 11:57:04;;;;;;;51.00;19.92;;;9.70;62.40;;;;;;5090215;28;20121;-67
2021/12/17 11:59:32;;;;;;;58.95;20.15;;;9.60;62.70;;;;;;5057486;28;20528;-65
2021/12/17 12:02:08;;;;;;;52.13;20.90;;;9.60;62.60;;;;;;5090012;28;20088;-64
2021/12/17 12:04:34;;;;;;;51.97;20.93;;;9.60;63.00;;;;;;5090596;28;20075;-65
2021/12/17 12:07:08;;;;;;;54.38;21.15;;;9.60;62.90;;;;;;5089675;28;20531;-65
2021/12/17 12:09:59;;;;;;;48.28;19.02;;;9.60;62.90;;;;;;5091330;28;20569;-65
2021/12/17 12:12:51;;;;;;;47.40;18.95;;;9.60;62.00;;;;;;5090189;28;20546;-66
2021/12/17 12:15:21;;;;;;;50.28;19.33;;;9.50;62.10;;;;;;5089487;28;20522;-63
2021/12/17 12:18:09;;;;;;;45.90;18.10;;;9.50;62.90;;;;;;5090455;28;20153;-64
2021/12/17 12:20:49;;;;;;;41.67;17.80;;;9.50;62.40;;;;;;5090201;28;20534;-64
2021/12/17 12:23:36;;;;;;;46.60;17.15;;;9.40;62.60;;;;;;5088854;28;20072;-65
2021/12/17 12:26:03;;;;;;;44.42;17.73;;;9.40;62.90;;;;;;5090233;28;20162;-65
2021/12/17 12:28:45;;;;;;;45.28;18.83;;;9.40;63.30;;;;;;5091225;28;20080;-64
2021/12/17 12:31:18;;;;;;;41.58;16.73;;;9.40;63.90;;;;;;5089289;28;20120;-65
2021/12/17 12:34:10;;;;;;;41.90;16.58;;;9.30;64.10;;;;;;5090502;28;20553;-64
2021/12/17 12:37:07;;;;;;;37.15;16.45;;;9.30;64.40;;;;;;5088620;28;20076;-65
2021/12/17 12:39:56;;;;;;;41.10;16.77;;;9.30;65.10;;;;;;5088778;28;20088;-64
2021/12/17 12:42:30;;;;;;;38.35;15.50;;;9.30;65.40;;;;;;5088973;28;20115;-67
2021/12/17 12:44:57;;;;;;;41.08;15.73;;;9.20;65.50;;;;;;5089226;28;20575;-66
2021/12/17 12:47:26;;;;;;;56.15;16.27;;;9.30;65.70;;;;;;5090988;28;20552;-66
2021/12/17 12:50:07;;;;;;;43.70;15.35;;;9.30;66.00;;;;;;5089850;28;20743;-65
2021/12/17 12:52:39;;;;;;;31.05;14.52;;;9.10;66.30;;;;;;5073178;28;20085;-65
2021/12/17 12:55:22;;;;;;;33.22;14.00;;;9.20;66.70;;;;;;5090065;28;20122;-67
2021/12/17 12:58:02;;;;;;;33.80;12.98;;;9.20;66.10;;;;;;5088927;28;20512;-66
2021/12/17 13:00:51;;;;;;;34.80;13.82;;;9.20;66.00;;;;;;5089418;28;20072;-66
2021/12/17 13:03:39;;;;;;;36.25;13.40;;;9.30;66.50;;;;;;5089337;28;20071;-68
2021/12/17 13:06:06;;;;;;;24.08;12.60;;;9.30;66.20;;;;;;5088321;28;20523;-65
2021/12/17 13:08:33;;;;;;;27.02;12.98;;;9.30;66.80;;;;;;5088267;28;20088;-64
2021/12/17 13:11:03;;;;;;;34.47;13.52;;;9.20;66.80;;;;;;5088425;28;20519;-66
2021/12/17 13:13:39;;;;;;;27.42;12.85;;;9.20;67.30;;;;;;5090940;28;20561;-66
2021/12/17 13:16:18;;;;;;;34.75;13.35;;;9.20;67.40;;;;;;5088088;28;20080;-68
2021/12/17 13:24:33;;;;;;;31.98;13.23;;;9.30;68.70;;;;;;5087945;28;20092;-65
2021/12/17 13:27:11;;;;;;;27.27;13.25;;;9.30;68.00;;;;;;5085508;28;20451;-64
2021/12/17 13:29:44;;;;;;;28.02;13.35;;;9.30;68.10;;;;;;5089672;28;20069;-65
2021/12/17 13:32:11;;;;;;;31.98;13.95;;;9.30;68.50;;;;;;5088749;28;20576;-67
2021/12/17 13:34:55;;;;;;;31.00;13.35;;;9.30;68.20;;;;;;5087302;28;20076;-67
2021/12/17 13:37:27;;;;;;;31.35;14.02;;;9.30;69.00;;;;;;5087728;28;20089;-64
2021/12/17 13:39:56;;;;;;;28.52;13.50;;;9.30;68.80;;;;;;5089147;28;20077;-64
2021/12/17 13:42:30;;;;;;;38.78;14.57;;;9.20;69.60;;;;;;5088659;28;20072;-65
2021/12/17 13:45:00;;;;;;;35.30;14.20;;;9.20;70.00;;;;;;5089004;28;20069;-65
2021/12/17 13:47:33;;;;;;;37.83;13.95;;;9.20;70.30;;;;;;5088527;28;20083;-67
2021/12/17 13:50:17;;;;;;;37.28;14.32;;;9.10;71.10;;;;;;5087232;28;20092;-65
2021/12/17 13:52:53;;;;;;;27.10;12.23;;;9.10;71.50;;;;;;5087792;28;20069;-64
2021/12/17 13:55:46;;;;;;;35.20;12.52;;;9.10;71.30;;;;;;5088390;28;20068;-64
2021/12/17 13:58:22;;;;;;;23.88;13.15;;;9.10;70.70;;;;;;5086049;28;20104;-65
2021/12/17 14:00:58;;;;;;;32.38;12.88;;;9.10;70.60;;;;;;5088239;28;20102;-64
2021/12/17 14:03:34;;;;;;;27.88;12.25;;;9.10;70.60;;;;;;5087510;28;20117;-63
2021/12/17 14:06:10;;;;;;;27.65;12.90;;;9.10;70.70;;;;;;5088331;28;20086;-64
2021/12/17 14:08:41;;;;;;;26.13;11.90;;;9.10;71.10;;;;;;5088009;28;20111;-64
2021/12/17 14:11:27;;;;;;;33.90;12.60;;;9.10;71.60;;;;;;5087270;28;20107;-64
2021/12/17 14:13:54;;;;;;;31.40;12.27;;;9.10;72.10;;;;;;5088123;28;20496;-66
2021/12/17 14:16:31;;;;;;;34.17;13.18;;;9.10;71.90;;;;;;5090965;28;20187;-66
2021/12/17 14:18:58;;;;;;;38.08;13.30;;;9.10;72.10;;;;;;5088184;28;20244;-65
2021/12/17 14:21:33;;;;;;;39.05;13.77;;;9.10;72.40;;;;;;5086240;28;20091;-64
2021/12/17 14:24:00;;;;;;;33.67;11.90;;;9.10;71.90;;;;;;5086712;28;20525;-65
2021/12/17 14:26:31;;;;;;;34.20;12.00;;;9.10;71.80;;;;;;5087767;28;20104;-65
2021/12/17 14:29:12;;;;;;;33.47;11.85;;;9.00;72.60;;;;;;5087622;28;20163;-66
2021/12/17 14:31:39;;;;;;;36.75;12.80;;;9.10;71.70;;;;;;5087005;28;20080;-64
2021/12/17 14:34:05;;;;;;;;;;;9.10;71.90;;;;;;5087849;28;20089;-66
2021/12/17 14:36:41;;;;;;;45.80;14.00;;;9.00;71.90;;;;;;5086669;28;20480;-65
2021/12/17 14:39:16;;;;;;;34.40;13.33;;;9.10;72.50;;;;;;5073563;28;20119;-64
2021/12/17 14:41:58;;;;;;;32.25;13.00;;;9.10;72.40;;;;;;5072035;28;20554;-66
2021/12/17 14:47:09;;;;;;;37.67;13.70;;;9.10;72.40;;;;;;5090949;28;20076;-69
2021/12/17 15:06:03;;;;;;;33.45;14.00;;;9.20;73.70;;;;;;5072710;28;20118;-65
2021/12/17 15:08:30;;;;;;;39.70;14.73;;;9.20;73.00;;;;;;5085995;28;20422;-64
2021/12/17 15:10:57;;;;;;;40.55;13.80;;;9.20;73.20;;;;;;5087201;28;20077;-67
2021/12/17 15:13:24;;;;;;;38.38;13.32;;;9.20;74.00;;;;;;5085905;28;20530;-65
2021/12/17 15:15:52;;;;;;;39.78;14.18;;;9.30;73.30;;;;;;5088193;28;20080;-65
2021/12/17 15:18:19;;;;;;;33.17;13.73;;;9.30;73.60;;;;;;5087496;28;20310;-67
2021/12/17 15:20:48;;;;;;;42.85;15.32;;;9.30;73.80;;;;;;5087361;28;20077;-65
2021/12/17 15:23:16;;;;;;;44.72;13.48;;;9.40;74.20;;;;;;5086511;28;20508;-66
2021/12/17 15:25:44;;;;;;;47.67;14.73;;;9.50;74.70;;;;;;5087267;28;20112;-65
2021/12/17 15:28:13;;;;;;;31.05;13.85;;;9.60;74.90;;;;;;5087223;28;20170;-68
2021/12/17 15:30:44;;;;;;;35.10;14.07;;;9.60;74.30;;;;;;5086948;28;20534;-66
2021/12/17 15:33:12;;;;;;;35.08;13.93;;;9.70;74.30;;;;;;5086165;28;20092;-67
2021/12/17 15:35:39;;;;;;;36.45;13.85;;;9.80;74.40;;;;;;5098118;28;20089;-66
2021/12/17 15:38:08;;;;;;;35.75;13.70;;;9.90;74.60;;;;;;5087206;28;20085;-67
2021/12/17 15:40:36;;;;;;;32.85;14.13;;;9.90;74.60;;;;;;5086421;28;20111;-67
2021/12/17 15:43:03;;;;;;;40.15;14.25;;;10.00;74.30;;;;;;5086875;28;20081;-66
2021/12/17 15:45:32;;;;;;;32.50;14.98;;;10.20;73.20;;;;;;5085834;28;20072;-65
2021/12/17 15:47:59;;;;;;;48.67;15.90;;;10.30;72.80;;;;;;5086244;28;20156;-67
2021/12/17 15:50:25;;;;;;;;;;;10.40;72.30;;;;;;5087852;28;20100;-67
2021/12/17 15:52:52;;;;;;;51.00;16.67;;;10.70;71.20;;;;;;5086641;28;20066;-66
2021/12/17 15:55:22;;;;;;;44.85;15.45;;;11.00;70.50;;;;;;5088821;28;20076;-66
2021/12/17 15:57:49;;;;;;;51.13;16.35;;;11.40;67.80;;;;;;5088223;28;20081;-68
2021/12/17 16:00:17;;;;;;;40.28;15.48;;;11.60;66.20;;;;;;5093128;28;20087;-66
2021/12/17 16:02:44;;;;;;;53.25;16.67;;;11.90;65.80;;;;;;5090922;28;20229;-66
2021/12/17 16:05:14;;;;;;;40.38;15.48;;;12.40;64.40;;;;;;5091391;28;20077;-69
2021/12/17 16:07:41;;;;;;;37.88;15.68;;;12.80;63.10;;;;;;5089913;28;20593;-66
2021/12/17 16:21:00;;;;;;;46.75;13.95;;;15.20;55.20;;;;;;5091450;28;20133;-66
2021/12/17 16:21:05;;;;;;;41.20;14.63;;;15.60;54.60;;;;;;5083310;28;20535;-65